Time;durP1;ratioP1;P1;durP2;ratioP2;P2;SDS_P1;SDS_P2;PMS_P1;PMS_P2;Temp;Humidity;BMP_temperature;BMP_pressure;BME280_temperature;BME280_humidity;BME280_pressure;Samples;Min_cycle;Max_cycle;Signal;HPM_P1;HPM_P2
2023/05/10 00:00:12;;;;;;;0.00;0.00;;;;;;;9.95;100.00;99945.03;6277280;22;20012;-78
2023/05/10 00:02:38;;;;;;;0.00;0.00;;;;;;;9.91;100.00;99943.94;6246875;22;20746;-78
2023/05/10 00:05:04;;;;;;;0.00;0.00;;;;;;;9.88;100.00;99949.16;6252714;22;20007;-77
2023/05/10 00:07:30;;;;;;;0.00;0.00;;;;;;;9.81;100.00;99951.34;6225329;22;19995;-77
2023/05/10 00:09:55;;;;;;;0.00;0.00;;;;;;;9.75;100.00;99951.34;6253384;22;20010;-77
2023/05/10 00:12:21;;;;;;;0.00;0.00;;;;;;;9.63;100.00;99941.78;6278129;22;20026;-78
2023/05/10 00:14:46;;;;;;;0.00;0.00;;;;;;;9.56;100.00;99951.06;6252632;22;20034;-77
2023/05/10 00:17:12;;;;;;;0.10;0.10;;;;;;;9.47;100.00;99947.19;6250369;22;20150;-76
2023/05/10 00:19:37;;;;;;;0.00;0.00;;;;;;;9.46;100.00;99953.75;6245670;22;20493;-77
2023/05/10 00:22:03;;;;;;;0.00;0.00;;;;;;;9.39;100.00;99942.28;6243094;22;20089;-79
2023/05/10 00:24:28;;;;;;;0.00;0.00;;;;;;;9.34;100.00;99947.72;6213130;22;20018;-79
2023/05/10 00:26:54;;;;;;;0.00;0.00;;;;;;;9.29;100.00;99947.69;6241785;22;20004;-79
2023/05/10 00:29:19;;;;;;;0.00;0.00;;;;;;;9.31;100.00;99951.00;6243117;22;20007;-78
2023/05/10 00:31:45;;;;;;;0.00;0.00;;;;;;;9.20;100.00;99945.50;6239874;22;20016;-79
2023/05/10 00:34:10;;;;;;;0.00;0.00;;;;;;;9.19;100.00;99956.69;6243279;22;20426;-77
2023/05/10 00:36:36;;;;;;;0.00;0.00;;;;;;;9.12;100.00;99948.75;6214014;22;20427;-76
2023/05/10 00:39:03;;;;;;;0.00;0.00;;;;;;;9.11;100.00;99947.09;6239191;22;20380;-77
2023/05/10 00:41:29;;;;;;;0.00;0.00;;;;;;;9.06;100.00;99949.81;6218862;22;20008;-77
2023/05/10 00:43:54;;;;;;;0.00;0.00;;;;;;;8.98;100.00;99942.16;6262304;22;20388;-77
2023/05/10 00:46:21;;;;;;;0.00;0.00;;;;;;;8.94;100.00;99946.53;6219529;22;20015;-79
2023/05/10 00:48:49;;;;;;;0.00;0.00;;;;;;;8.94;100.00;99946.53;6241846;22;20022;-79
2023/05/10 00:51:14;;;;;;;0.00;0.00;;;;;;;8.96;100.00;99949.78;6244669;22;20103;-76
2023/05/10 00:53:40;;;;;;;0.00;0.00;;;;;;;8.93;100.00;99950.31;6241064;22;20482;-76
2023/05/10 00:56:06;;;;;;;0.00;0.00;;;;;;;8.91;100.00;99962.31;6240539;22;20019;-78
2023/05/10 00:58:31;;;;;;;0.00;0.00;;;;;;;8.84;100.00;99948.09;6219132;22;20046;-77
2023/05/10 01:00:58;;;;;;;0.00;0.00;;;;;;;8.82;100.00;99960.34;6214205;22;20008;-76
2023/05/10 01:03:25;;;;;;;0.00;0.00;;;;;;;8.84;100.00;99959.00;6268424;22;20006;-77
2023/05/10 01:05:50;;;;;;;0.05;0.05;;;;;;;8.83;100.00;99960.09;6237268;22;20000;-75
2023/05/10 01:08:16;;;;;;;0.00;0.00;;;;;;;8.79;100.00;99956.28;6270484;22;20008;-77
2023/05/10 01:10:42;;;;;;;0.00;0.00;;;;;;;8.81;100.00;99958.72;6241934;22;20034;-78
2023/05/10 01:13:09;;;;;;;0.00;0.00;;;;;;;8.76;100.00;99959.53;6242770;22;20004;-77
2023/05/10 01:15:36;;;;;;;0.00;0.00;;;;;;;8.82;100.00;99961.19;6243616;22;20027;-78
2023/05/10 01:18:02;;;;;;;0.00;0.00;;;;;;;8.81;100.00;99951.38;6239036;22;20704;-78
2023/05/10 01:20:36;;;;;;;0.00;0.00;;;;;;;8.82;100.00;99960.34;6244634;22;20082;-78
2023/05/10 01:23:16;;;;;;;0.00;0.00;;;;;;;8.82;100.00;99966.66;6239135;22;20015;-77
2023/05/10 01:26:12;;;;;;;0.00;0.00;;;;;;;8.79;100.00;99961.72;6272897;22;19999;-78
2023/05/10 01:28:56;;;;;;;0.00;0.00;;;;;;;8.78;100.00;99964.72;6271690;22;20007;-78
2023/05/10 01:31:59;;;;;;;0.00;0.00;;;;;;;8.82;100.00;99969.38;6267427;22;20018;-76
2023/05/10 01:34:31;;;;;;;0.00;0.00;;;;;;;8.89;100.00;99966.38;6242048;22;20061;-77
2023/05/10 01:37:10;;;;;;;0.00;0.00;;;;;;;8.90;100.00;99962.59;6240658;22;20104;-78
2023/05/10 01:39:54;;;;;;;0.00;0.00;;;;;;;9.04;100.00;99980.09;6268416;22;20046;-77
2023/05/10 01:42:23;;;;;;;0.00;0.00;;;;;;;9.17;100.00;99983.41;6238771;22;20000;-77
2023/05/10 01:45:13;;;;;;;0.00;0.00;;;;;;;9.30;100.00;99982.09;6246918;22;20045;-77
2023/05/10 01:47:42;;;;;;;0.00;0.00;;;;;;;9.39;100.00;99980.50;6242666;22;20381;-76
2023/05/10 01:50:21;;;;;;;0.00;0.00;;;;;;;9.21;100.00;99955.34;6216740;22;20039;-77
2023/05/10 01:52:51;;;;;;;0.00;0.00;;;;;;;9.33;100.00;99965.19;6241105;23;20000;-78
2023/05/10 01:55:21;;;;;;;0.00;0.00;;;;;;;9.33;100.00;99970.63;6212559;23;20004;-77
2023/05/10 01:57:50;;;;;;;0.00;0.00;;;;;;;9.44;100.00;99991.41;6237353;23;20489;-77
2023/05/10 02:00:18;;;;;;;0.00;0.00;;;;;;;9.36;100.00;99975.53;6214622;23;20004;-78
2023/05/10 02:02:49;;;;;;;0.00;0.00;;;;;;;9.40;100.00;99973.94;6208706;23;20011;-76
2023/05/10 02:05:16;;;;;;;0.00;0.00;;;;;;;9.40;100.00;99976.66;6187636;23;20012;-76
2023/05/10 02:07:43;;;;;;;0.00;0.00;;;;;;;9.54;100.00;99985.97;6184143;23;20004;-77
2023/05/10 02:10:13;;;;;;;0.00;0.00;;;;;;;9.58;100.00;99989.81;6211797;23;20012;-78
2023/05/10 02:12:44;;;;;;;0.00;0.00;;;;;;;9.58;100.00;99984.34;6209641;23;20110;-78
2023/05/10 02:15:13;;;;;;;0.00;0.00;;;;;;;9.65;100.00;99981.38;6210450;22;20874;-76
2023/05/10 02:17:42;;;;;;;0.00;0.00;;;;;;;9.59;100.00;99985.16;6207051;23;20004;-78
2023/05/10 02:20:10;;;;;;;0.00;0.00;;;;;;;9.46;100.00;99991.94;6213988;23;20004;-78
2023/05/10 02:22:37;;;;;;;0.10;0.10;;;;;;;9.33;100.00;99984.28;6209974;23;20000;-76
2023/05/10 02:25:08;;;;;;;0.00;0.00;;;;;;;9.22;100.00;99984.25;6212014;23;20011;-76
2023/05/10 02:27:34;;;;;;;0.00;0.00;;;;;;;9.15;100.00;99991.84;6240919;23;20415;-77
2023/05/10 02:30:01;;;;;;;0.00;0.00;;;;;;;8.96;100.00;99966.16;6181931;23;20121;-79
2023/05/10 02:32:27;;;;;;;0.00;0.00;;;;;;;9.00;100.00;99994.53;6213657;23;20000;-77
2023/05/10 02:34:56;;;;;;;0.00;0.00;;;;;;;8.97;100.00;99995.88;6211769;23;20082;-78
2023/05/10 02:37:22;;;;;;;0.00;0.00;;;;;;;8.90;100.00;99990.66;6211845;23;20011;-78
2023/05/10 02:39:53;;;;;;;0.00;0.00;;;;;;;8.82;100.00;99985.72;6213425;23;20031;-77
2023/05/10 02:42:22;;;;;;;0.00;0.00;;;;;;;8.73;100.00;99968.22;6207672;23;20015;-76
2023/05/10 02:44:50;;;;;;;0.00;0.00;;;;;;;8.79;100.00;99983.53;6214463;23;20011;-76
2023/05/10 02:47:18;;;;;;;0.00;0.00;;;;;;;8.84;100.00;99997.19;6217697;23;20422;-75
2023/05/10 02:49:44;;;;;;;0.00;0.00;;;;;;;8.78;100.00;99990.06;6211673;23;20016;-76
2023/05/10 02:52:16;;;;;;;0.00;0.00;;;;;;;8.70;100.00;99982.38;6206016;23;20005;-76
2023/05/10 02:54:45;;;;;;;0.00;0.00;;;;;;;8.75;100.00;99993.31;6237906;23;20079;-76
2023/05/10 02:57:15;;;;;;;0.00;0.00;;;;;;;8.73;100.00;99996.31;6206085;23;20008;-75
2023/05/10 02:59:42;;;;;;;0.00;0.00;;;;;;;8.77;100.00;100001.25;6240594;23;20004;-75
2023/05/10 03:02:09;;;;;;;0.00;0.00;;;;;;;8.74;100.00;100011.56;6183289;23;20087;-76
2023/05/10 03:04:34;;;;;;;0.00;0.00;;;;;;;8.65;100.00;100004.16;6187061;23;20007;-75
2023/05/10 03:07:00;;;;;;;0.00;0.00;;;;;;;8.62;100.00;100004.69;6188471;23;20008;-75
2023/05/10 03:09:26;;;;;;;0.00;0.00;;;;;;;8.56;100.00;99996.47;6209049;23;20470;-75
2023/05/10 03:12:14;;;;;;;0.00;0.00;;;;;;;8.62;100.00;100007.44;6164056;23;19996;-75
2023/05/10 03:14:54;;;;;;;0.00;0.00;;;;;;;8.60;100.00;100006.84;6210017;23;20008;-75
2023/05/10 03:17:35;;;;;;;0.00;0.00;;;;;;;8.54;100.00;99997.81;6208802;23;20007;-75
2023/05/10 03:20:09;;;;;;;0.00;0.00;;;;;;;8.60;100.00;100010.41;6215000;23;20326;-76
2023/05/10 03:22:40;;;;;;;0.00;0.00;;;;;;;8.62;100.00;100004.69;6213635;23;20000;-75
2023/05/10 03:25:08;;;;;;;0.00;0.00;;;;;;;8.55;100.00;99999.47;6238916;23;20006;-76
2023/05/10 03:27:36;;;;;;;0.00;0.00;;;;;;;8.64;100.00;100007.97;6215097;23;20004;-76
2023/05/10 03:30:02;;;;;;;0.00;0.00;;;;;;;8.63;100.00;100006.31;6213807;23;20054;-75
2023/05/10 03:32:29;;;;;;;0.00;0.00;;;;;;;8.63;100.00;100007.16;6207653;23;20009;-76
2023/05/10 03:34:54;;;;;;;0.00;0.00;;;;;;;8.64;100.00;100007.97;6241948;23;20003;-76
2023/05/10 03:37:20;;;;;;;0.00;0.00;;;;;;;8.68;100.00;100014.53;6183012;23;20015;-75
2023/05/10 03:39:45;;;;;;;0.00;0.00;;;;;;;8.64;100.00;100002.53;6189131;23;20019;-76
2023/05/10 03:42:11;;;;;;;0.00;0.00;;;;;;;8.72;100.00;100011.03;6186024;23;20301;-76
2023/05/10 03:44:40;;;;;;;0.00;0.00;;;;;;;8.64;100.00;100000.59;6160975;23;20008;-75
2023/05/10 03:47:06;;;;;;;0.00;0.00;;;;;;;8.71;100.00;100009.38;6240610;23;20347;-76
2023/05/10 03:49:34;;;;;;;0.00;0.00;;;;;;;8.63;100.00;100006.31;6198297;22;20498;-75
2023/05/10 03:51:59;;;;;;;0.00;0.00;;;;;;;8.63;100.00;100012.63;6220840;22;20007;-75
2023/05/10 03:54:25;;;;;;;0.00;0.00;;;;;;;8.63;100.00;100017.22;6237873;22;20007;-77
2023/05/10 03:56:50;;;;;;;0.00;0.00;;;;;;;8.59;100.00;100000.59;6193415;22;20012;-77
2023/05/10 03:59:16;;;;;;;0.00;0.00;;;;;;;8.63;100.00;100017.22;6191990;22;20068;-77
2023/05/10 04:01:41;;;;;;;0.00;0.00;;;;;;;8.56;100.00;100012.84;6241988;22;20000;-76
2023/05/10 04:04:06;;;;;;;0.00;0.00;;;;;;;8.62;100.00;100023.78;6194043;22;20042;-76
2023/05/10 04:06:34;;;;;;;0.00;0.00;;;;;;;8.65;100.00;100026.78;6214211;22;20012;-77
2023/05/10 04:09:03;;;;;;;0.00;0.00;;;;;;;8.80;100.00;100028.78;6218045;22;20078;-76
2023/05/10 04:11:29;;;;;;;0.00;0.00;;;;;;;8.98;100.00;100034.88;6214646;22;20313;-75
2023/05/10 04:13:54;;;;;;;0.00;0.00;;;;;;;9.12;100.00;100033.31;6218153;22;20511;-75
2023/05/10 04:16:20;;;;;;;0.00;0.00;;;;;;;9.22;100.00;100047.00;6188285;22;20004;-76
2023/05/10 04:18:45;;;;;;;0.00;0.00;;;;;;;9.13;100.00;100020.50;6268488;22;20010;-76
2023/05/10 04:21:13;;;;;;;0.00;0.00;;;;;;;9.23;100.00;100021.38;6219264;22;20018;-75
2023/05/10 04:23:38;;;;;;;0.00;0.00;;;;;;;9.39;100.00;100024.16;6238283;22;20110;-75
2023/05/10 04:26:03;;;;;;;0.00;0.00;;;;;;;9.49;100.00;100043.28;6219197;22;20015;-76
2023/05/10 04:28:29;;;;;;;0.00;0.00;;;;;;;9.55;100.00;100044.94;6187939;22;20102;-75
2023/05/10 04:31:05;;;;;;;0.00;0.00;;;;;;;9.57;100.00;100034.56;6219418;22;20018;-75
2023/05/10 04:33:31;;;;;;;0.00;0.00;;;;;;;9.58;100.00;100028.03;6236930;22;20008;-75
2023/05/10 04:35:57;;;;;;;0.00;0.00;;;;;;;9.55;100.00;100028.56;6217679;22;20014;-75
2023/05/10 04:38:22;;;;;;;0.00;0.00;;;;;;;9.46;100.00;100035.63;6218754;22;20087;-76
2023/05/10 04:40:48;;;;;;;0.00;0.00;;;;;;;9.31;100.00;100021.94;6187613;22;20023;-75
2023/05/10 04:43:13;;;;;;;0.00;0.00;;;;;;;9.30;100.00;100036.66;6193050;22;20015;-74
2023/05/10 04:45:39;;;;;;;0.00;0.00;;;;;;;9.24;100.00;100033.09;6214087;22;20020;-75
2023/05/10 04:48:05;;;;;;;0.00;0.00;;;;;;;9.20;100.00;100038.28;6244147;22;20359;-75
2023/05/10 04:50:30;;;;;;;0.00;0.00;;;;;;;9.05;100.00;100013.63;6212301;22;20605;-75
2023/05/10 04:52:56;;;;;;;0.00;0.00;;;;;;;9.21;100.00;100039.91;6217482;22;20337;-75
2023/05/10 04:55:21;;;;;;;0.00;0.00;;;;;;;9.15;100.00;100030.03;6217561;22;20038;-76
2023/05/10 04:57:46;;;;;;;0.00;0.00;;;;;;;9.24;100.00;100047.56;6189871;22;20007;-76
2023/05/10 05:00:12;;;;;;;0.00;0.00;;;;;;;9.28;100.00;100044.31;6218200;22;20086;-76
2023/05/10 05:02:38;;;;;;;0.00;0.00;;;;;;;9.33;100.00;100047.03;6264730;22;20030;-76
2023/05/10 05:05:04;;;;;;;0.00;0.00;;;;;;;9.30;100.00;100047.56;6192723;22;20015;-77
2023/05/10 05:07:30;;;;;;;0.00;0.00;;;;;;;9.40;100.00;100053.06;6212645;22;20015;-77
2023/05/10 05:09:56;;;;;;;0.00;0.00;;;;;;;9.40;100.00;100047.63;6192297;22;20015;-76
2023/05/10 05:12:21;;;;;;;0.00;0.00;;;;;;;9.45;100.00;100050.38;6219268;22;20031;-76
2023/05/10 05:14:47;;;;;;;0.00;0.00;;;;;;;9.33;100.00;100036.13;6237070;22;19999;-76
2023/05/10 05:17:15;;;;;;;0.00;0.00;;;;;;;9.44;100.00;100054.19;6218313;22;20003;-76
2023/05/10 05:19:40;;;;;;;0.10;0.10;;;;;;;9.47;100.00;100047.38;6216264;22;20016;-76
2023/05/10 05:22:08;;;;;;;0.00;0.00;;;;;;;9.42;100.00;100045.47;6271600;22;20419;-76
2023/05/10 05:24:37;;;;;;;0.00;0.00;;;;;;;9.58;100.00;100071.69;6241138;22;20304;-76
2023/05/10 05:27:03;;;;;;;0.00;0.00;;;;;;;9.48;100.00;100055.28;6219308;22;20363;-76
2023/05/10 05:29:29;;;;;;;0.00;0.00;;;;;;;9.49;100.00;100050.66;6219364;22;20102;-75
2023/05/10 05:31:55;;;;;;;0.00;0.00;;;;;;;9.63;100.00;100078.28;6189247;22;20011;-75
2023/05/10 05:34:21;;;;;;;0.00;0.00;;;;;;;9.70;100.00;100084.31;6219332;22;20011;-76
2023/05/10 05:36:47;;;;;;;0.00;0.00;;;;;;;9.76;100.00;100089.50;6216981;22;20008;-74
2023/05/10 05:39:14;;;;;;;0.00;0.00;;;;;;;9.90;100.00;100084.34;6190496;22;20338;-75
2023/05/10 05:41:40;;;;;;;0.00;0.00;;;;;;;9.98;100.00;100079.47;6219366;22;20050;-77
2023/05/10 05:44:05;;;;;;;0.00;0.00;;;;;;;10.06;100.00;100087.09;6184065;22;20000;-75
2023/05/10 05:46:30;;;;;;;0.00;0.00;;;;;;;9.94;100.00;100085.47;6215938;22;20045;-76
2023/05/10 05:48:56;;;;;;;0.00;0.00;;;;;;;10.09;100.00;100105.69;6212877;22;20865;-74
2023/05/10 05:51:22;;;;;;;0.00;0.00;;;;;;;10.14;100.00;100100.22;6217984;22;20007;-75
2023/05/10 05:53:47;;;;;;;0.00;0.00;;;;;;;10.18;100.00;100106.81;6191225;22;20034;-75
2023/05/10 05:56:12;;;;;;;0.00;0.00;;;;;;;10.21;100.00;100095.31;6241185;22;20489;-75
2023/05/10 05:58:38;;;;;;;0.00;0.00;;;;;;;10.15;100.00;100074.56;6218843;22;20589;-75
2023/05/10 06:01:04;;;;;;;0.00;0.00;;;;;;;10.21;100.00;100078.13;6240620;22;20006;-74
2023/05/10 06:03:29;;;;;;;0.00;0.00;;;;;;;10.39;100.00;100095.91;6243585;22;20441;-76
2023/05/10 06:05:55;;;;;;;0.00;0.00;;;;;;;10.40;100.00;100081.16;6267061;22;20004;-77
2023/05/10 06:08:20;;;;;;;0.03;0.03;;;;;;;10.45;100.00;100075.69;6218661;22;20012;-76
2023/05/10 06:10:46;;;;;;;0.00;0.00;;;;;;;10.67;100.00;100104.66;6244528;22;20019;-76
2023/05/10 06:13:11;;;;;;;0.00;0.00;;;;;;;10.73;100.00;100111.75;6266514;22;20014;-76
2023/05/10 06:15:37;;;;;;;0.00;0.00;;;;;;;10.84;100.00;100107.94;6218022;22;20015;-75
2023/05/10 06:18:03;;;;;;;0.00;0.00;;;;;;;10.92;100.00;100110.13;6237774;22;20012;-76
2023/05/10 06:20:29;;;;;;;0.00;0.00;;;;;;;11.06;100.00;100110.34;6216640;22;20014;-74
2023/05/10 06:22:54;;;;;;;0.00;0.00;;;;;;;11.14;100.00;100106.22;6212404;22;20031;-75
2023/05/10 06:25:21;;;;;;;0.00;0.00;;;;;;;11.29;100.00;100114.41;6192087;22;20004;-75
2023/05/10 06:27:46;;;;;;;0.00;0.00;;;;;;;11.31;99.64;100112.19;6241590;22;20012;-75
2023/05/10 06:30:14;;;;;;;0.00;0.00;;;;;;;11.44;98.82;100119.00;6211352;22;20007;-75
2023/05/10 06:32:40;;;;;;;0.00;0.00;;;;;;;11.54;97.86;100118.16;6221059;22;20497;-75
2023/05/10 06:35:06;;;;;;;0.00;0.00;;;;;;;11.62;97.18;100123.06;6211898;22;20046;-76
2023/05/10 06:37:31;;;;;;;0.00;0.00;;;;;;;11.65;95.47;100121.66;6216871;22;20094;-75
2023/05/10 06:39:56;;;;;;;0.00;0.00;;;;;;;11.75;95.54;100115.31;6191874;22;20031;-76
2023/05/10 06:42:22;;;;;;;0.00;0.00;;;;;;;11.78;95.20;100114.75;6188419;22;20000;-75
2023/05/10 06:44:48;;;;;;;0.00;0.00;;;;;;;11.89;94.73;100110.88;6270889;22;20059;-77
2023/05/10 06:47:16;;;;;;;0.00;0.00;;;;;;;11.98;94.13;100109.19;6261795;22;20038;-80
2023/05/10 06:49:41;;;;;;;0.00;0.00;;;;;;;12.21;93.40;100139.78;6244276;22;20070;-79
2023/05/10 06:52:10;;;;;;;0.00;0.00;;;;;;;12.11;91.61;100123.38;6211508;22;20011;-75
2023/05/10 06:54:35;;;;;;;0.00;0.00;;;;;;;12.16;91.86;100115.13;6242717;22;20034;-77
2023/05/10 06:57:12;;;;;;;0.00;0.00;;;;;;;12.57;90.67;100120.28;6241691;22;20011;-77
2023/05/10 06:59:40;;;;;;;0.00;0.00;;;;;;;13.05;89.45;100130.56;6221802;22;20004;-79
2023/05/10 07:02:10;;;;;;;0.00;0.00;;;;;;;13.44;86.83;100141.44;6243603;22;20000;-79
2023/05/10 07:04:35;;;;;;;0.00;0.00;;;;;;;13.66;83.86;100136.53;6217984;22;20008;-78
2023/05/10 07:07:04;;;;;;;0.00;0.00;;;;;;;13.92;82.98;100142.53;6245168;22;20030;-76
2023/05/10 07:09:29;;;;;;;0.00;0.00;;;;;;;14.09;81.85;100136.50;6241036;22;20004;-77
2023/05/10 07:11:57;;;;;;;0.00;0.00;;;;;;;14.43;79.60;100135.47;6213677;22;20011;-79
2023/05/10 07:14:23;;;;;;;0.00;0.00;;;;;;;14.73;79.09;100145.19;6204829;22;20018;-75
2023/05/10 07:16:49;;;;;;;0.00;0.00;;;;;;;15.05;75.89;100148.25;6243024;22;20027;-74
2023/05/10 07:19:16;;;;;;;0.00;0.00;;;;;;;15.40;73.30;100132.97;6239730;22;20110;-74
2023/05/10 07:21:43;;;;;;;0.00;0.00;;;;;;;15.49;71.63;100141.34;6243371;22;20371;-74
2023/05/10 07:24:19;;;;;;;0.00;0.00;;;;;;;15.43;72.43;100135.13;6239129;22;20103;-75
2023/05/10 07:26:45;;;;;;;0.00;0.00;;;;;;;15.52;71.76;100138.81;6217884;22;20015;-75
2023/05/10 07:29:10;;;;;;;0.00;0.00;;;;;;;15.78;71.99;100160.34;6243454;22;20326;-75
2023/05/10 07:31:43;;;;;;;0.00;0.00;;;;;;;15.99;72.01;100158.00;6269679;22;20064;-75
2023/05/10 07:34:16;;;;;;;0.00;0.00;;;;;;;16.30;69.97;100138.00;6217304;22;20503;-73
2023/05/10 07:36:41;;;;;;;0.00;0.00;;;;;;;16.49;68.85;100135.06;6218792;22;20011;-74
2023/05/10 07:39:07;;;;;;;0.00;0.00;;;;;;;16.38;69.12;100147.47;6239003;22;20091;-74
2023/05/10 07:41:37;;;;;;;0.00;0.00;;;;;;;16.21;69.96;100148.94;6257915;22;20745;-74
2023/05/10 07:44:03;;;;;;;0.00;0.00;;;;;;;16.16;70.05;100153.75;6236820;22;19995;-74
2023/05/10 07:46:34;;;;;;;0.00;0.00;;;;;;;16.32;69.79;100157.00;6264474;22;20000;-73
2023/05/10 07:50:42;;;;;;;;;;;;;;;;;;;;;
2023/05/10 07:56:54;;;;;;;0.00;0.00;;;;;;;15.38;71.78;100162.78;6013208;23;20079;-74
2023/05/10 08:03:53;;;;;;;0.00;0.00;;;;;;;14.48;75.89;100127.97;6057423;23;20010;-75
2023/05/10 08:06:20;;;;;;;0.00;0.00;;;;;;;14.82;75.67;100165.41;6013245;23;20006;-73
2023/05/10 08:08:50;;;;;;;0.00;0.00;;;;;;;15.07;73.17;100130.31;6262148;22;20035;-79
2023/05/10 08:11:17;;;;;;;0.00;0.00;;;;;;;15.74;72.29;100134.50;6244007;22;20011;-79
2023/05/10 08:13:43;;;;;;;0.00;0.00;;;;;;;16.05;69.22;100140.19;6222452;22;20418;-79
2023/05/10 08:16:09;;;;;;;0.00;0.00;;;;;;;15.76;69.14;100137.75;6242252;22;20061;-79
2023/05/10 08:18:46;;;;;;;0.00;0.00;;;;;;;15.99;68.36;100158.00;6246423;22;20007;-79
2023/05/10 08:21:12;;;;;;;0.00;0.00;;;;;;;16.08;67.86;100147.03;6269213;22;20353;-78
2023/05/10 08:23:38;;;;;;;0.00;0.00;;;;;;;16.35;66.96;100145.31;6246852;22;19991;-79
2023/05/10 08:26:06;;;;;;;0.00;0.00;;;;;;;16.90;66.02;100163.63;6245569;22;20008;-79
2023/05/10 08:28:34;;;;;;;0.00;0.00;;;;;;;17.14;64.39;100166.03;6244807;22;20010;-79
2023/05/10 08:31:02;;;;;;;0.00;0.00;;;;;;;17.08;63.81;100153.50;6244998;22;20015;-80
2023/05/10 08:33:27;;;;;;;0.00;0.00;;;;;;;17.46;62.86;100169.63;6244771;22;20004;-78
2023/05/10 08:35:53;;;;;;;0.00;0.00;;;;;;;17.27;62.37;100159.63;6195300;22;20722;-79
2023/05/10 08:38:20;;;;;;;0.00;0.00;;;;;;;16.98;63.21;100142.72;6220405;22;20008;-78
2023/05/10 08:40:58;;;;;;;0.00;0.00;;;;;;;17.04;62.72;100188.41;6244076;22;20012;-78
2023/05/10 08:43:29;;;;;;;0.00;0.00;;;;;;;16.79;63.53;100156.72;6245381;22;20010;-78
2023/05/10 08:45:58;;;;;;;0.00;0.00;;;;;;;16.95;64.86;100159.94;6241569;22;20500;-78
2023/05/10 08:48:26;;;;;;;0.00;0.00;;;;;;;17.03;65.19;100164.69;6247997;22;20008;-78
2023/05/10 08:50:59;;;;;;;0.00;0.00;;;;;;;16.95;65.13;100170.97;6240919;22;20023;-79
2023/05/10 08:53:30;;;;;;;0.00;0.00;;;;;;;17.11;65.16;100191.53;6245453;22;20019;-78
2023/05/10 08:55:57;;;;;;;0.00;0.00;;;;;;;16.91;63.69;100177.13;6242192;22;20031;-79
2023/05/10 08:58:22;;;;;;;0.00;0.00;;;;;;;16.82;64.11;100178.16;6219495;22;20014;-79
2023/05/10 09:00:50;;;;;;;0.00;0.00;;;;;;;16.95;63.35;100168.22;6241051;22;20007;-79
2023/05/10 09:03:16;;;;;;;0.00;0.00;;;;;;;17.23;62.68;100177.13;6245222;22;20264;-79
2023/05/10 09:05:44;;;;;;;0.00;0.00;;;;;;;17.65;62.27;100166.59;6243507;22;20126;-79
2023/05/10 09:08:18;;;;;;;0.00;0.00;;;;;;;18.10;61.02;100160.09;6273454;22;19999;-81
2023/05/10 09:10:46;;;;;;;0.00;0.00;;;;;;;18.64;58.33;100185.50;6246260;22;20015;-79
2023/05/10 09:13:15;;;;;;;0.00;0.00;;;;;;;18.31;58.20;100155.56;6218755;22;20007;-80
2023/05/10 09:15:41;;;;;;;0.00;0.00;;;;;;;18.39;58.43;100172.50;6245706;22;20054;-82
2023/05/10 09:18:06;;;;;;;0.00;0.00;;;;;;;18.51;59.46;100164.34;6241807;22;20007;-78
2023/05/10 09:20:32;;;;;;;0.00;0.00;;;;;;;18.90;59.08;100161.75;6244020;22;20049;-79
2023/05/10 09:22:57;;;;;;;0.00;0.00;;;;;;;19.10;55.86;100174.06;6242060;22;20511;-79
2023/05/10 09:25:25;;;;;;;0.00;0.00;;;;;;;18.95;55.85;100169.88;6272509;22;20004;-79
2023/05/10 09:27:52;;;;;;;0.00;0.00;;;;;;;19.08;55.23;100187.44;6244186;22;20299;-78
2023/05/10 09:30:26;;;;;;;0.00;0.00;;;;;;;19.38;55.56;100179.19;6241135;22;20300;-79
2023/05/10 09:32:52;;;;;;;0.00;0.00;;;;;;;20.04;52.38;100179.56;6245538;22;20445;-80
2023/05/10 09:35:21;;;;;;;0.00;0.00;;;;;;;20.18;51.32;100171.00;6268702;22;20011;-79
2023/05/10 09:37:56;;;;;;;0.00;0.00;;;;;;;21.10;50.10;100180.34;6271782;22;20082;-80
2023/05/10 09:40:23;;;;;;;0.00;0.00;;;;;;;22.97;45.58;100179.06;6245672;22;20135;-79
2023/05/10 09:43:01;;;;;;;0.00;0.00;;;;;;;23.82;45.44;100176.06;6248156;22;20027;-77
2023/05/10 09:45:29;;;;;;;0.00;0.00;;;;;;;25.56;41.17;100184.88;6245121;22;19999;-77
2023/05/10 09:47:55;;;;;;;0.00;0.00;;;;;;;26.16;37.41;100177.81;6248090;22;20009;-78
2023/05/10 09:50:24;;;;;;;0.00;0.00;;;;;;;26.73;37.71;100183.41;6222770;22;20039;-80
2023/05/10 09:52:54;;;;;;;0.00;0.00;;;;;;;25.48;37.19;100188.75;6197118;22;20027;-77
2023/05/10 09:55:26;;;;;;;0.00;0.00;;;;;;;23.13;40.10;100179.94;6248614;22;20020;-79
2023/05/10 09:58:05;;;;;;;0.00;0.00;;;;;;;23.80;41.29;100182.03;6273355;22;20003;-79
2023/05/10 10:00:38;;;;;;;0.00;0.00;;;;;;;25.52;39.09;100191.59;6249646;22;20012;-80
2023/05/10 10:03:05;;;;;;;0.00;0.00;;;;;;;27.43;35.93;100174.53;6248389;22;19999;-78
2023/05/10 10:05:32;;;;;;;0.00;0.00;;;;;;;28.02;34.97;100181.06;6274670;22;20004;-79
2023/05/10 10:07:58;;;;;;;0.00;0.00;;;;;;;27.36;34.87;100174.47;6245751;22;20635;-78
2023/05/10 10:10:25;;;;;;;0.00;0.00;;;;;;;26.84;34.86;100194.75;6246325;22;20030;-78
2023/05/10 10:12:51;;;;;;;0.00;0.00;;;;;;;26.26;35.19;100179.97;6220023;22;20047;-79
2023/05/10 10:15:17;;;;;;;0.00;0.00;;;;;;;25.72;36.25;100184.72;6245193;22;20326;-79
2023/05/10 10:17:52;;;;;;;0.00;0.00;;;;;;;25.88;36.65;100178.97;6241689;22;20509;-80
2023/05/10 10:20:19;;;;;;;0.00;0.00;;;;;;;26.19;35.78;100170.66;6246129;22;20007;-78
2023/05/10 10:22:45;;;;;;;0.00;0.00;;;;;;;26.44;35.90;100173.78;6241718;22;20057;-80
2023/05/10 10:25:15;;;;;;;0.00;0.00;;;;;;;26.53;35.24;100174.31;6194031;22;20016;-79
2023/05/10 10:27:53;;;;;;;0.00;0.00;;;;;;;26.48;35.99;100177.47;6244987;22;20010;-78
2023/05/10 10:30:41;;;;;;;0.00;0.00;;;;;;;24.90;36.94;100170.88;6244558;22;20897;-78
2023/05/10 10:34:06;;;;;;;0.00;0.00;;;;;;;22.78;40.79;100186.09;6248903;22;20050;-79
2023/05/10 10:36:33;;;;;;;0.00;0.00;;;;;;;25.07;39.66;100174.38;6275862;22;20054;-79
2023/05/10 10:39:09;;;;;;;0.00;0.00;;;;;;;29.75;31.67;100166.72;6244496;22;20577;-79
2023/05/10 10:41:42;;;;;;;0.00;0.00;;;;;;;33.11;25.97;100182.03;6274744;22;20003;-79
2023/05/10 10:44:25;;;;;;;0.00;0.00;;;;;;;34.65;24.29;100177.72;6242807;22;19999;-79
2023/05/10 10:47:11;;;;;;;0.00;0.00;;;;;;;35.90;21.78;100179.69;6274741;22;19996;-78
2023/05/10 10:49:41;;;;;;;0.00;0.00;;;;;;;34.59;22.67;100168.91;6274308;22;20071;-78
2023/05/10 10:52:36;;;;;;;0.00;0.00;;;;;;;35.49;22.62;100166.91;6223198;23;20024;-78
2023/05/10 10:55:12;;;;;;;0.00;0.00;;;;;;;37.09;20.94;100169.78;6215693;23;20091;-78
2023/05/10 10:57:41;;;;;;;0.00;0.00;;;;;;;38.06;19.75;100167.34;6211676;23;20868;-77
2023/05/10 11:00:19;;;;;;;0.00;0.00;;;;;;;37.72;19.20;100171.81;6216363;23;20427;-79
2023/05/10 11:02:49;;;;;;;0.00;0.00;;;;;;;35.42;20.91;100144.34;6214561;23;20008;-79
2023/05/10 11:05:47;;;;;;;0.00;0.00;;;;;;;33.78;23.41;100162.38;6217569;23;20001;-80
2023/05/10 11:08:32;;;;;;;0.00;0.00;;;;;;;34.97;20.79;100145.78;6241699;23;20053;-79
2023/05/10 11:11:03;;;;;;;0.00;0.00;;;;;;;35.30;19.76;100143.03;6218793;23;20323;-82
2023/05/10 11:13:30;;;;;;;0.00;0.00;;;;;;;35.44;21.26;100147.53;6216439;23;20035;-82
2023/05/10 11:15:57;;;;;;;0.00;0.00;;;;;;;35.84;20.39;100140.88;6219550;23;20007;-77
2023/05/10 11:18:31;;;;;;;0.00;0.00;;;;;;;36.21;20.18;100142.25;6192124;23;20078;-77
2023/05/10 11:40:09;;;;;;;;;;;;;;;;;;;;;
2023/05/10 12:05:13;;;;;;;0.00;0.00;;;;;;;22.59;38.02;100121.84;5949584;24;20129;-80
2023/05/10 12:07:46;;;;;;;0.00;0.00;;;;;;;20.91;41.64;100121.72;5927378;24;20013;-78
2023/05/10 12:10:51;;;;;;;;;;;;;;;;;;;;;
2023/05/10 12:13:47;;;;;;;;;;;;;;;20.66;43.77;100138.31;6021348;23;20118;-80
2023/05/10 12:16:31;;;;;;;0.00;0.00;;;;;;;21.09;42.10;100108.44;6034712;23;19984;-81
2023/05/10 12:19:06;;;;;;;0.00;0.00;;;;;;;21.65;41.83;100126.56;6184743;23;20004;-80
2023/05/10 12:21:43;;;;;;;0.00;0.00;;;;;;;21.86;40.76;100110.56;6210590;23;20381;-79
2023/05/10 12:27:17;;;;;;;0.00;0.00;;;;;;;24.64;36.56;100123.22;6242020;23;20000;-79
2023/05/10 12:36:32;;;;;;;0.00;0.00;;;;;;;26.37;34.05;100112.88;6107369;23;20558;-79
2023/05/10 12:39:03;;;;;;;0.00;0.00;;;;;;;28.17;29.65;100127.75;6238840;23;20023;-79
2023/05/10 12:42:32;;;;;;;;;;;;;;;;;;;;;